sensor_id;sensor_type;location;lat;lon;timestamp;pressure;altitude;pressure_sealevel;temperature;humidity
63493;BME280;49638;47.526;10.028;2023-01-13T00:00:28;91658.53;;;4.98;64.15
63493;BME280;49638;47.526;10.028;2023-01-13T00:03:29;91653.09;;;5.00;65.98
63493;BME280;49638;47.526;10.028;2023-01-13T00:06:29;91642.78;;;5.05;64.97
63493;BME280;49638;47.526;10.028;2023-01-13T00:09:29;91651.03;;;5.09;64.82
63493;BME280;49638;47.526;10.028;2023-01-13T00:12:30;91633.72;;;5.08;63.50
63493;BME280;49638;47.526;10.028;2023-01-13T00:15:31;91639.28;;;5.18;63.05
63493;BME280;49638;47.526;10.028;2023-01-13T00:18:32;91617.91;;;5.21;64.53
63493;BME280;49638;47.526;10.028;2023-01-13T00:21:33;91621.63;;;5.32;65.29
63493;BME280;49638;47.526;10.028;2023-01-13T00:24:33;91631.28;;;5.38;65.41
63493;BME280;49638;47.526;10.028;2023-01-13T00:27:34;91612.13;;;5.37;65.98
63493;BME280;49638;47.526;10.028;2023-01-13T00:30:34;91612.56;;;5.34;66.18
63493;BME280;49638;47.526;10.028;2023-01-13T00:33:37;91599.22;;;5.36;66.60
63493;BME280;49638;47.526;10.028;2023-01-13T00:36:38;91585.38;;;5.29;65.57
63493;BME280;49638;47.526;10.028;2023-01-13T00:39:38;91605.22;;;5.43;66.27
63493;BME280;49638;47.526;10.028;2023-01-13T00:42:38;91599.53;;;5.46;65.81
63493;BME280;49638;47.526;10.028;2023-01-13T00:45:58;91602.75;;;5.48;66.76
63493;BME280;49638;47.526;10.028;2023-01-13T00:48:58;91584.63;;;5.46;65.36
63493;BME280;49638;47.526;10.028;2023-01-13T00:51:58;91585.00;;;5.50;67.00
63493;BME280;49638;47.526;10.028;2023-01-13T00:54:59;91583.38;;;5.49;66.98
63493;BME280;49638;47.526;10.028;2023-01-13T00:57:59;91592.66;;;5.52;66.10
63493;BME280;49638;47.526;10.028;2023-01-13T01:01:06;91588.00;;;5.54;66.10
63493;BME280;49638;47.526;10.028;2023-01-13T01:04:06;91563.22;;;5.50;66.09
63493;BME280;49638;47.526;10.028;2023-01-13T01:07:07;91565.78;;;5.56;65.14
63493;BME280;49638;47.526;10.028;2023-01-13T01:10:07;91574.00;;;5.60;64.91
63493;BME280;49638;47.526;10.028;2023-01-13T01:13:08;91558.50;;;5.58;64.96
63493;BME280;49638;47.526;10.028;2023-01-13T01:16:13;91565.94;;;5.61;65.42
63493;BME280;49638;47.526;10.028;2023-01-13T01:19:14;91554.06;;;5.59;65.37
63493;BME280;49638;47.526;10.028;2023-01-13T01:22:14;91561.56;;;5.55;64.26
63493;BME280;49638;47.526;10.028;2023-01-13T01:25:15;91547.44;;;5.56;64.82
63493;BME280;49638;47.526;10.028;2023-01-13T01:28:15;91558.66;;;5.63;65.01
63493;BME280;49638;47.526;10.028;2023-01-13T01:34:19;91543.34;;;5.60;64.01
63493;BME280;49638;47.526;10.028;2023-01-13T01:37:20;91544.97;;;5.61;65.17
63493;BME280;49638;47.526;10.028;2023-01-13T01:40:20;91550.94;;;5.68;63.22
63493;BME280;49638;47.526;10.028;2023-01-13T01:43:21;91559.19;;;5.72;64.67
63493;BME280;49638;47.526;10.028;2023-01-13T01:46:42;91542.22;;;5.75;64.51
63493;BME280;49638;47.526;10.028;2023-01-13T01:49:43;91549.50;;;5.73;65.00
63493;BME280;49638;47.526;10.028;2023-01-13T01:52:49;91545.63;;;5.75;63.29
63493;BME280;49638;47.526;10.028;2023-01-13T01:55:53;91553.72;;;5.74;64.87
63493;BME280;49638;47.526;10.028;2023-01-13T01:58:54;91540.22;;;5.70;61.76
63493;BME280;49638;47.526;10.028;2023-01-13T02:01:55;91552.91;;;5.73;63.97
63493;BME280;49638;47.526;10.028;2023-01-13T02:04:56;91544.75;;;5.63;64.44
63493;BME280;49638;47.526;10.028;2023-01-13T02:07:57;91539.81;;;5.73;63.96
63493;BME280;49638;47.526;10.028;2023-01-13T02:10:58;91546.88;;;5.73;62.98
63493;BME280;49638;47.526;10.028;2023-01-13T02:13:58;91544.84;;;5.75;63.71
63493;BME280;49638;47.526;10.028;2023-01-13T02:27:33;91543.59;;;5.77;58.08
63493;BME280;49638;47.526;10.028;2023-01-13T02:30:48;91556.84;;;5.82;58.80
63493;BME280;49638;47.526;10.028;2023-01-13T02:34:13;91542.59;;;5.78;61.65
63493;BME280;49638;47.526;10.028;2023-01-13T02:37:23;91563.06;;;5.88;60.95
63493;BME280;49638;47.526;10.028;2023-01-13T02:40:33;91545.13;;;5.85;61.29
63493;BME280;49638;47.526;10.028;2023-01-13T02:43:37;91544.69;;;5.88;63.00
63493;BME280;49638;47.526;10.028;2023-01-13T02:47:08;91546.28;;;5.89;60.93
63493;BME280;49638;47.526;10.028;2023-01-13T02:50:14;91535.81;;;5.89;62.79
63493;BME280;49638;47.526;10.028;2023-01-13T02:53:24;91523.13;;;5.86;61.20
63493;BME280;49638;47.526;10.028;2023-01-13T02:56:28;91525.50;;;5.87;63.39
63493;BME280;49638;47.526;10.028;2023-01-13T02:59:29;91528.97;;;5.88;63.38
63493;BME280;49638;47.526;10.028;2023-01-13T03:02:30;91517.72;;;5.81;63.65
63493;BME280;49638;47.526;10.028;2023-01-13T03:05:31;91517.72;;;5.81;62.31
63493;BME280;49638;47.526;10.028;2023-01-13T03:08:38;91506.31;;;5.93;61.63
63493;BME280;49638;47.526;10.028;2023-01-13T03:11:55;91501.28;;;5.92;61.27
63493;BME280;49638;47.526;10.028;2023-01-13T03:22:16;91513.81;;;6.08;62.57
63493;BME280;49638;47.526;10.028;2023-01-13T03:25:23;91510.16;;;6.09;63.25
63493;BME280;49638;47.526;10.028;2023-01-13T03:28:29;91508.69;;;6.13;63.09
63493;BME280;49638;47.526;10.028;2023-01-13T03:31:33;91506.88;;;6.14;62.25
63493;BME280;49638;47.526;10.028;2023-01-13T03:34:49;91507.91;;;6.13;61.20
63493;BME280;49638;47.526;10.028;2023-01-13T03:38:27;91508.50;;;6.15;60.36
63493;BME280;49638;47.526;10.028;2023-01-13T03:41:30;91513.78;;;6.27;62.49
63493;BME280;49638;47.526;10.028;2023-01-13T03:45:16;91495.41;;;6.27;63.08
63493;BME280;49638;47.526;10.028;2023-01-13T03:47:58;91496.81;;;6.29;63.81
63493;BME280;49638;47.526;10.028;2023-01-13T03:51:04;91501.00;;;6.30;63.22
63493;BME280;49638;47.526;10.028;2023-01-13T03:54:07;91507.66;;;6.33;63.66
63493;BME280;49638;47.526;10.028;2023-01-13T03:57:11;91520.19;;;6.31;63.64
63493;BME280;49638;47.526;10.028;2023-01-13T04:00:14;91518.78;;;6.28;63.87
63493;BME280;49638;47.526;10.028;2023-01-13T04:03:35;91512.41;;;6.24;59.29
63493;BME280;49638;47.526;10.028;2023-01-13T04:06:43;91509.56;;;6.26;62.99
63493;BME280;49638;47.526;10.028;2023-01-13T04:09:51;91513.66;;;6.22;63.19
63493;BME280;49638;47.526;10.028;2023-01-13T04:12:57;91520.16;;;6.19;62.46
63493;BME280;49638;47.526;10.028;2023-01-13T04:16:00;91512.91;;;6.14;63.44
63493;BME280;49638;47.526;10.028;2023-01-13T04:19:00;91518.41;;;6.13;61.69
63493;BME280;49638;47.526;10.028;2023-01-13T04:22:01;91510.28;;;6.14;63.08
63493;BME280;49638;47.526;10.028;2023-01-13T04:25:01;91490.22;;;6.08;62.73
63493;BME280;49638;47.526;10.028;2023-01-13T04:28:01;91501.06;;;6.12;63.33
63493;BME280;49638;47.526;10.028;2023-01-13T04:31:02;91507.53;;;6.09;63.44
63493;BME280;49638;47.526;10.028;2023-01-13T04:34:02;91494.06;;;6.06;63.39
63493;BME280;49638;47.526;10.028;2023-01-13T04:37:02;91498.16;;;6.02;63.62
63493;BME280;49638;47.526;10.028;2023-01-13T04:40:03;91490.38;;;5.95;63.37
63493;BME280;49638;47.526;10.028;2023-01-13T04:43:04;91484.38;;;5.88;63.65
63493;BME280;49638;47.526;10.028;2023-01-13T04:46:04;91476.66;;;5.93;63.58
63493;BME280;49638;47.526;10.028;2023-01-13T04:49:05;91477.88;;;5.90;63.50
63493;BME280;49638;47.526;10.028;2023-01-13T04:52:05;91451.59;;;5.79;63.85
63493;BME280;49638;47.526;10.028;2023-01-13T04:55:07;91463.69;;;5.80;64.03
63493;BME280;49638;47.526;10.028;2023-01-13T04:58:09;91460.50;;;5.78;63.99
63493;BME280;49638;47.526;10.028;2023-01-13T05:01:09;91457.28;;;5.76;64.16
63493;BME280;49638;47.526;10.028;2023-01-13T05:04:09;91454.06;;;5.74;62.75
63493;BME280;49638;47.526;10.028;2023-01-13T05:07:09;91462.16;;;5.72;64.03
63493;BME280;49638;47.526;10.028;2023-01-13T05:10:10;91461.22;;;5.66;63.72
63493;BME280;49638;47.526;10.028;2023-01-13T05:13:10;91453.59;;;5.65;63.91
63493;BME280;49638;47.526;10.028;2023-01-13T05:16:29;91446.34;;;5.60;64.25
63493;BME280;49638;47.526;10.028;2023-01-13T05:19:48;91450.81;;;5.60;64.24
63493;BME280;49638;47.526;10.028;2023-01-13T05:22:48;91438.97;;;5.57;63.96
63493;BME280;49638;47.526;10.028;2023-01-13T05:26:07;91431.09;;;5.57;64.39
63493;BME280;49638;47.526;10.028;2023-01-13T05:29:07;91437.13;;;5.58;64.30
63493;BME280;49638;47.526;10.028;2023-01-13T05:32:08;91438.97;;;5.57;64.23
63493;BME280;49638;47.526;10.028;2023-01-13T05:35:08;91441.78;;;5.56;64.27
63493;BME280;49638;47.526;10.028;2023-01-13T05:38:08;91444.41;;;5.56;64.38
63493;BME280;49638;47.526;10.028;2023-01-13T05:41:09;91437.84;;;5.46;63.99
63493;BME280;49638;47.526;10.028;2023-01-13T05:44:28;91444.63;;;5.54;64.48
63493;BME280;49638;47.526;10.028;2023-01-13T05:47:28;91438.06;;;5.45;64.62
63493;BME280;49638;47.526;10.028;2023-01-13T05:50:28;91453.72;;;5.52;64.61
63493;BME280;49638;47.526;10.028;2023-01-13T05:53:29;91460.38;;;5.54;64.68
63493;BME280;49638;47.526;10.028;2023-01-13T05:56:30;91441.28;;;5.47;64.52
63493;BME280;49638;47.526;10.028;2023-01-13T05:59:30;91452.50;;;5.54;64.26
63493;BME280;49638;47.526;10.028;2023-01-13T06:02:30;91447.09;;;5.49;64.42
63493;BME280;49638;47.526;10.028;2023-01-13T06:05:31;91447.03;;;5.56;64.11
63493;BME280;49638;47.526;10.028;2023-01-13T06:08:32;91447.81;;;5.56;64.46
63493;BME280;49638;47.526;10.028;2023-01-13T06:11:32;91454.09;;;5.55;64.38
63493;BME280;49638;47.526;10.028;2023-01-13T06:14:32;91456.94;;;5.54;64.71
63493;BME280;49638;47.526;10.028;2023-01-13T06:17:41;91452.22;;;5.44;64.66
63493;BME280;49638;47.526;10.028;2023-01-13T06:20:42;91442.28;;;5.46;64.51
63493;BME280;49638;47.526;10.028;2023-01-13T06:23:42;91445.06;;;5.51;64.27
63493;BME280;49638;47.526;10.028;2023-01-13T06:26:42;91426.88;;;5.38;64.60
63493;BME280;49638;47.526;10.028;2023-01-13T06:29:43;91442.66;;;5.50;64.30
63493;BME280;49638;47.526;10.028;2023-01-13T06:32:46;91433.44;;;5.47;64.59
63493;BME280;49638;47.526;10.028;2023-01-13T06:35:52;91437.06;;;5.46;64.05
63493;BME280;49638;47.526;10.028;2023-01-13T06:38:56;91439.47;;;5.48;63.90
63493;BME280;49638;47.526;10.028;2023-01-13T06:41:58;91440.09;;;5.43;64.00
63493;BME280;49638;47.526;10.028;2023-01-13T06:45:17;91436.69;;;5.42;63.71
63493;BME280;49638;47.526;10.028;2023-01-13T06:48:22;91442.28;;;5.46;62.13
63493;BME280;49638;47.526;10.028;2023-01-13T06:51:23;91453.81;;;5.45;62.75
63493;BME280;49638;47.526;10.028;2023-01-13T06:54:23;91465.31;;;5.44;62.98
63493;BME280;49638;47.526;10.028;2023-01-13T06:57:23;91457.44;;;5.44;63.04
63493;BME280;49638;47.526;10.028;2023-01-13T07:00:25;91426.19;;;5.42;62.98
63493;BME280;49638;47.526;10.028;2023-01-13T07:03:25;91435.81;;;5.49;62.87
63493;BME280;49638;47.526;10.028;2023-01-13T07:06:25;91439.66;;;5.46;63.38
63493;BME280;49638;47.526;10.028;2023-01-13T07:09:26;91426.72;;;5.51;62.96
63493;BME280;49638;47.526;10.028;2023-01-13T07:12:26;91428.91;;;5.54;62.63
63493;BME280;49638;47.526;10.028;2023-01-13T07:15:26;91420.88;;;5.49;62.79
63493;BME280;49638;47.526;10.028;2023-01-13T07:18:28;91430.25;;;5.57;62.27
63493;BME280;49638;47.526;10.028;2023-01-13T07:21:30;91415.00;;;5.54;62.19
63493;BME280;49638;47.526;10.028;2023-01-13T07:24:30;91436.47;;;5.62;62.29
63493;BME280;49638;47.526;10.028;2023-01-13T07:27:31;91445.91;;;5.63;61.92
63493;BME280;49638;47.526;10.028;2023-01-13T07:30:31;91446.75;;;5.64;62.20
63493;BME280;49638;47.526;10.028;2023-01-13T07:33:31;91450.16;;;5.64;61.74
63493;BME280;49638;47.526;10.028;2023-01-13T07:36:32;91473.97;;;5.63;61.87
63493;BME280;49638;47.526;10.028;2023-01-13T07:39:33;91461.44;;;5.65;61.79
63493;BME280;49638;47.526;10.028;2023-01-13T07:42:33;91456.63;;;5.62;61.34
63493;BME280;49638;47.526;10.028;2023-01-13T07:45:59;91467.31;;;5.60;61.40
63493;BME280;49638;47.526;10.028;2023-01-13T07:49:00;91447.38;;;5.59;61.51
63493;BME280;49638;47.526;10.028;2023-01-13T07:52:00;91444.13;;;5.64;61.57
63493;BME280;49638;47.526;10.028;2023-01-13T07:55:01;91433.41;;;5.65;61.69
63493;BME280;49638;47.526;10.028;2023-01-13T07:58:01;91438.56;;;5.72;62.06
63493;BME280;49638;47.526;10.028;2023-01-13T08:01:09;91447.38;;;5.78;60.10
63493;BME280;49638;47.526;10.028;2023-01-13T08:04:09;91446.34;;;5.79;61.84
63493;BME280;49638;47.526;10.028;2023-01-13T08:07:10;91462.38;;;5.89;61.66
63493;BME280;49638;47.526;10.028;2023-01-13T08:10:10;91456.69;;;5.92;61.77
63493;BME280;49638;47.526;10.028;2023-01-13T08:13:13;91465.00;;;5.89;62.03
63493;BME280;49638;47.526;10.028;2023-01-13T08:16:17;91468.41;;;5.89;62.06
63493;BME280;49638;47.526;10.028;2023-01-13T08:19:17;91460.50;;;5.78;62.00
63493;BME280;49638;47.526;10.028;2023-01-13T08:22:17;91482.03;;;5.80;62.33
63493;BME280;49638;47.526;10.028;2023-01-13T08:25:17;91475.19;;;5.79;62.60
63493;BME280;49638;47.526;10.028;2023-01-13T08:28:18;91468.94;;;5.80;62.76
63493;BME280;49638;47.526;10.028;2023-01-13T08:31:18;91466.91;;;5.82;62.40
63493;BME280;49638;47.526;10.028;2023-01-13T08:34:18;91464.19;;;5.88;62.45
63493;BME280;49638;47.526;10.028;2023-01-13T08:37:19;91466.38;;;5.91;62.29
63493;BME280;49638;47.526;10.028;2023-01-13T08:40:19;91469.94;;;5.97;61.76
63493;BME280;49638;47.526;10.028;2023-01-13T08:43:20;91466.75;;;5.95;62.43
63493;BME280;49638;47.526;10.028;2023-01-13T08:46:20;91463.97;;;5.90;62.82
63493;BME280;49638;47.526;10.028;2023-01-13T08:49:21;91463.84;;;5.85;63.12
63493;BME280;49638;47.526;10.028;2023-01-13T08:52:21;91467.34;;;5.79;63.28
63493;BME280;49638;47.526;10.028;2023-01-13T08:55:22;91462.97;;;5.73;63.52
63493;BME280;49638;47.526;10.028;2023-01-13T08:58:22;91472.28;;;5.68;63.58
63493;BME280;49638;47.526;10.028;2023-01-13T09:01:23;91457.50;;;5.74;64.05
63493;BME280;49638;47.526;10.028;2023-01-13T09:04:26;91455.63;;;5.81;63.92
63493;BME280;49638;47.526;10.028;2023-01-13T09:07:27;91449.19;;;5.77;63.70
63493;BME280;49638;47.526;10.028;2023-01-13T09:10:27;91455.81;;;5.80;64.00
63493;BME280;49638;47.526;10.028;2023-01-13T09:13:27;91461.56;;;5.88;64.46
63493;BME280;49638;47.526;10.028;2023-01-13T09:16:27;91451.66;;;5.90;64.29
63493;BME280;49638;47.526;10.028;2023-01-13T09:19:28;91457.00;;;6.02;64.36
63493;BME280;49638;47.526;10.028;2023-01-13T09:22:29;91448.00;;;6.10;64.77
63493;BME280;49638;47.526;10.028;2023-01-13T09:25:29;91463.25;;;6.31;64.51
63493;BME280;49638;47.526;10.028;2023-01-13T09:28:29;91474.69;;;6.37;64.87
63493;BME280;49638;47.526;10.028;2023-01-13T09:31:31;91483.84;;;6.46;64.90
63493;BME280;49638;47.526;10.028;2023-01-13T09:34:34;91485.00;;;6.50;64.94
63493;BME280;49638;47.526;10.028;2023-01-13T09:37:53;91488.13;;;6.59;66.17
63493;BME280;49638;47.526;10.028;2023-01-13T09:40:54;91500.22;;;6.60;65.93
63493;BME280;49638;47.526;10.028;2023-01-13T09:43:57;91514.91;;;6.49;65.88
63493;BME280;49638;47.526;10.028;2023-01-13T09:47:03;91511.44;;;6.37;66.09
63493;BME280;49638;47.526;10.028;2023-01-13T09:53:26;91538.47;;;6.37;67.73
63493;BME280;49638;47.526;10.028;2023-01-13T09:56:28;91522.81;;;6.31;66.88
63493;BME280;49638;47.526;10.028;2023-01-13T09:59:30;91521.94;;;6.37;67.24
63493;BME280;49638;47.526;10.028;2023-01-13T10:05:39;91507.13;;;6.43;67.88
63493;BME280;49638;47.526;10.028;2023-01-13T10:08:41;91506.44;;;6.47;67.94
63493;BME280;49638;47.526;10.028;2023-01-13T10:11:43;91498.56;;;6.47;67.61
63493;BME280;49638;47.526;10.028;2023-01-13T10:15:04;91513.88;;;6.50;67.81
63493;BME280;49638;47.526;10.028;2023-01-13T10:18:14;91510.00;;;6.53;67.14
63493;BME280;49638;47.526;10.028;2023-01-13T10:21:46;91524.72;;;6.54;67.05
63493;BME280;49638;47.526;10.028;2023-01-13T10:25:11;91517.66;;;6.54;65.72
63493;BME280;49638;47.526;10.028;2023-01-13T10:28:17;91516.53;;;6.62;66.92
63493;BME280;49638;47.526;10.028;2023-01-13T10:31:23;91520.53;;;6.64;66.90
63493;BME280;49638;47.526;10.028;2023-01-13T10:34:25;91522.59;;;6.62;66.83
63493;BME280;49638;47.526;10.028;2023-01-13T10:37:27;91518.50;;;6.67;67.06
63493;BME280;49638;47.526;10.028;2023-01-13T10:40:27;91499.97;;;6.61;66.98
63493;BME280;49638;47.526;10.028;2023-01-13T10:43:28;91508.91;;;6.72;67.14
63493;BME280;49638;47.526;10.028;2023-01-13T10:46:31;91492.69;;;6.75;66.69
63493;BME280;49638;47.526;10.028;2023-01-13T10:49:36;91499.38;;;6.90;65.92
63493;BME280;49638;47.526;10.028;2023-01-13T10:52:56;91489.31;;;6.98;65.08
63493;BME280;49638;47.526;10.028;2023-01-13T10:56:00;91486.25;;;7.01;65.88
63493;BME280;49638;47.526;10.028;2023-01-13T10:59:12;91502.25;;;7.11;64.90
63493;BME280;49638;47.526;10.028;2023-01-13T11:05:23;91482.50;;;7.21;66.29
63493;BME280;49638;47.526;10.028;2023-01-13T11:08:29;91475.16;;;7.23;66.33
63493;BME280;49638;47.526;10.028;2023-01-13T11:11:42;91456.66;;;7.29;66.44
63493;BME280;49638;47.526;10.028;2023-01-13T11:14:43;91452.19;;;7.30;67.07
63493;BME280;49638;47.526;10.028;2023-01-13T11:17:51;91473.22;;;7.30;68.19
63493;BME280;49638;47.526;10.028;2023-01-13T11:21:00;91441.69;;;6.95;67.72
63493;BME280;49638;47.526;10.028;2023-01-13T11:24:14;91510.47;;;7.15;70.39
63493;BME280;49638;47.526;10.028;2023-01-13T11:27:40;91499.97;;;7.03;72.71
63493;BME280;49638;47.526;10.028;2023-01-13T11:30:49;91508.50;;;6.99;71.66
63493;BME280;49638;47.526;10.028;2023-01-13T11:33:58;91504.63;;;6.90;71.11
63493;BME280;49638;47.526;10.028;2023-01-13T11:37:08;91499.38;;;6.90;72.39
63493;BME280;49638;47.526;10.028;2023-01-13T11:40:38;91497.31;;;6.92;72.75
63493;BME280;49638;47.526;10.028;2023-01-13T11:43:57;91496.97;;;6.88;74.09
63493;BME280;49638;47.526;10.028;2023-01-13T11:47:00;91508.59;;;6.80;72.12
63493;BME280;49638;47.526;10.028;2023-01-13T11:50:02;91509.94;;;6.71;74.81
63493;BME280;49638;47.526;10.028;2023-01-13T11:56:40;91536.03;;;6.54;77.93
63493;BME280;49638;47.526;10.028;2023-01-13T12:00:06;91531.81;;;6.53;78.82
63493;BME280;49638;47.526;10.028;2023-01-13T12:03:26;91528.03;;;6.49;81.08
63493;BME280;49638;47.526;10.028;2023-01-13T12:06:33;91543.44;;;6.46;75.43
63493;BME280;49638;47.526;10.028;2023-01-13T12:16:31;91532.88;;;6.34;76.87
63493;BME280;49638;47.526;10.028;2023-01-13T12:19:32;91535.28;;;6.35;77.08
63493;BME280;49638;47.526;10.028;2023-01-13T12:22:33;91549.22;;;6.36;77.38
63493;BME280;49638;47.526;10.028;2023-01-13T12:25:42;91536.38;;;6.28;79.72
63493;BME280;49638;47.526;10.028;2023-01-13T12:28:52;91538.63;;;6.24;78.71
63493;BME280;49638;47.526;10.028;2023-01-13T12:31:54;91534.50;;;6.16;78.36
63493;BME280;49638;47.526;10.028;2023-01-13T12:38:10;91544.41;;;6.14;84.35
63493;BME280;49638;47.526;10.028;2023-01-13T12:41:32;91561.56;;;5.99;85.85
63493;BME280;49638;47.526;10.028;2023-01-13T12:45:18;91555.75;;;5.90;87.21
63493;BME280;49638;47.526;10.028;2023-01-13T12:48:45;91558.16;;;5.73;88.86
63493;BME280;49638;47.526;10.028;2023-01-13T13:01:04;91578.03;;;5.62;83.18
63493;BME280;49638;47.526;10.028;2023-01-13T13:04:12;91550.00;;;5.63;83.39
63493;BME280;49638;47.526;10.028;2023-01-13T13:07:17;91578.25;;;5.61;84.45
63493;BME280;49638;47.526;10.028;2023-01-13T13:10:29;91592.59;;;5.58;86.08
63493;BME280;49638;47.526;10.028;2023-01-13T13:14:00;91567.03;;;5.54;88.06
63493;BME280;49638;47.526;10.028;2023-01-13T13:17:00;91563.88;;;5.45;83.62
63493;BME280;49638;47.526;10.028;2023-01-13T13:20:01;91577.13;;;5.50;84.27
63493;BME280;49638;47.526;10.028;2023-01-13T13:26:39;91598.75;;;5.45;85.53
63493;BME280;49638;47.526;10.028;2023-01-13T13:29:52;91603.47;;;5.37;86.27
63493;BME280;49638;47.526;10.028;2023-01-13T13:36:54;91599.22;;;5.36;85.99
63493;BME280;49638;47.526;10.028;2023-01-13T13:39:50;91596.03;;;5.34;82.51
63493;BME280;49638;47.526;10.028;2023-01-13T13:43:12;91606.66;;;5.39;82.58
63493;BME280;49638;47.526;10.028;2023-01-13T13:46:42;91603.63;;;5.42;87.13
63493;BME280;49638;47.526;10.028;2023-01-13T13:49:48;91590.00;;;5.33;82.53
63493;BME280;49638;47.526;10.028;2023-01-13T13:53:02;91590.31;;;5.18;84.39
63493;BME280;49638;47.526;10.028;2023-01-13T13:56:14;91606.78;;;5.26;83.54
63493;BME280;49638;47.526;10.028;2023-01-13T13:59:21;91611.44;;;5.24;83.41
63493;BME280;49638;47.526;10.028;2023-01-13T14:02:31;91626.34;;;5.23;84.12
63493;BME280;49638;47.526;10.028;2023-01-13T14:05:34;91642.91;;;5.17;82.80
63493;BME280;49638;47.526;10.028;2023-01-13T14:08:37;91627.81;;;5.12;82.48
63493;BME280;49638;47.526;10.028;2023-01-13T14:11:39;91626.88;;;5.07;83.35
63493;BME280;49638;47.526;10.028;2023-01-13T14:14:43;91649.69;;;5.00;85.48
63493;BME280;49638;47.526;10.028;2023-01-13T14:17:44;91666.84;;;4.89;84.41
63493;BME280;49638;47.526;10.028;2023-01-13T14:21:03;91656.03;;;4.79;86.75
63493;BME280;49638;47.526;10.028;2023-01-13T14:24:13;91660.69;;;4.77;85.26
63493;BME280;49638;47.526;10.028;2023-01-13T14:27:16;91661.28;;;4.72;83.68
63493;BME280;49638;47.526;10.028;2023-01-13T14:30:18;91681.03;;;4.74;83.84
63493;BME280;49638;47.526;10.028;2023-01-13T14:33:26;91681.81;;;4.75;84.93
63493;BME280;49638;47.526;10.028;2023-01-13T14:39:36;91706.25;;;4.69;84.02
63493;BME280;49638;47.526;10.028;2023-01-13T14:42:37;91705.25;;;4.63;83.86
63493;BME280;49638;47.526;10.028;2023-01-13T14:45:54;91697.00;;;4.60;86.15
63493;BME280;49638;47.526;10.028;2023-01-13T14:48:59;91713.91;;;4.64;84.18
63493;BME280;49638;47.526;10.028;2023-01-13T14:52:19;91712.91;;;4.51;85.68
63493;BME280;49638;47.526;10.028;2023-01-13T14:55:26;91733.66;;;4.60;83.63
63493;BME280;49638;47.526;10.028;2023-01-13T14:58:27;91736.47;;;4.58;82.97
63493;BME280;49638;47.526;10.028;2023-01-13T15:01:32;91725.19;;;4.58;82.95
63493;BME280;49638;47.526;10.028;2023-01-13T15:04:35;91733.84;;;4.51;82.97
63493;BME280;49638;47.526;10.028;2023-01-13T15:07:37;91749.56;;;4.45;83.45
63493;BME280;49638;47.526;10.028;2023-01-13T15:10:56;91743.94;;;4.48;85.27
63493;BME280;49638;47.526;10.028;2023-01-13T15:13:59;91726.47;;;4.42;83.15
63493;BME280;49638;47.526;10.028;2023-01-13T15:17:00;91722.81;;;4.43;82.93
63493;BME280;49638;47.526;10.028;2023-01-13T15:20:02;91722.22;;;4.41;83.05
63493;BME280;49638;47.526;10.028;2023-01-13T15:23:02;91737.50;;;4.44;83.18
63493;BME280;49638;47.526;10.028;2023-01-13T15:26:02;91728.47;;;4.40;83.09
63493;BME280;49638;47.526;10.028;2023-01-13T15:29:03;91742.75;;;4.37;82.82
63493;BME280;49638;47.526;10.028;2023-01-13T15:32:04;91729.28;;;4.40;83.03
63493;BME280;49638;47.526;10.028;2023-01-13T15:35:05;91758.44;;;4.50;82.66
63493;BME280;49638;47.526;10.028;2023-01-13T15:38:10;91762.25;;;4.48;83.42
63493;BME280;49638;47.526;10.028;2023-01-13T15:41:10;91764.06;;;4.47;82.69
63493;BME280;49638;47.526;10.028;2023-01-13T15:44:12;91768.31;;;4.48;82.67
63493;BME280;49638;47.526;10.028;2023-01-13T15:47:31;91767.91;;;4.45;83.31
63493;BME280;49638;47.526;10.028;2023-01-13T15:50:31;91759.47;;;4.43;81.85
63493;BME280;49638;47.526;10.028;2023-01-13T15:53:31;91762.47;;;4.40;81.72
63493;BME280;49638;47.526;10.028;2023-01-13T15:56:36;91756.66;;;4.38;81.75
63493;BME280;49638;47.526;10.028;2023-01-13T15:59:38;91782.63;;;4.33;82.10
63493;BME280;49638;47.526;10.028;2023-01-13T16:02:38;91758.47;;;4.31;81.47
63493;BME280;49638;47.526;10.028;2023-01-13T16:05:39;91767.72;;;4.33;81.45
63493;BME280;49638;47.526;10.028;2023-01-13T16:08:39;91780.00;;;4.33;81.41
63493;BME280;49638;47.526;10.028;2023-01-13T16:11:39;91774.78;;;4.33;81.43
63493;BME280;49638;47.526;10.028;2023-01-13T16:14:40;91781.84;;;4.25;81.51
63493;BME280;49638;47.526;10.028;2023-01-13T16:17:41;91783.03;;;4.30;81.18
63493;BME280;49638;47.526;10.028;2023-01-13T16:20:43;91781.03;;;4.32;81.35
63493;BME280;49638;47.526;10.028;2023-01-13T16:23:43;91767.94;;;4.32;81.06
63493;BME280;49638;47.526;10.028;2023-01-13T16:26:43;91769.13;;;4.42;80.09
63493;BME280;49638;47.526;10.028;2023-01-13T16:29:45;91778.78;;;4.42;79.55
63493;BME280;49638;47.526;10.028;2023-01-13T16:32:45;91800.94;;;4.46;79.84
63493;BME280;49638;47.526;10.028;2023-01-13T16:35:46;91795.88;;;4.51;79.68
63493;BME280;49638;47.526;10.028;2023-01-13T16:38:48;91789.44;;;4.47;79.63
63493;BME280;49638;47.526;10.028;2023-01-13T16:41:48;91791.03;;;4.48;79.15
63493;BME280;49638;47.526;10.028;2023-01-13T16:44:49;91803.53;;;4.46;79.71
63493;BME280;49638;47.526;10.028;2023-01-13T16:47:51;91812.81;;;4.42;79.81
63493;BME280;49638;47.526;10.028;2023-01-13T16:50:51;91820.84;;;4.34;80.32
63493;BME280;49638;47.526;10.028;2023-01-13T16:53:52;91857.50;;;4.40;80.88
63493;BME280;49638;47.526;10.028;2023-01-13T16:56:52;91846.22;;;4.33;81.77
63493;BME280;49638;47.526;10.028;2023-01-13T16:59:52;91847.81;;;4.21;82.84
63493;BME280;49638;47.526;10.028;2023-01-13T17:02:53;91843.59;;;4.00;83.84
63493;BME280;49638;47.526;10.028;2023-01-13T17:05:53;91877.19;;;3.96;84.74
63493;BME280;49638;47.526;10.028;2023-01-13T17:08:53;91884.44;;;4.01;84.00
63493;BME280;49638;47.526;10.028;2023-01-13T17:11:58;91905.53;;;3.93;83.22
63493;BME280;49638;47.526;10.028;2023-01-13T17:14:59;91899.47;;;3.72;83.13
63493;BME280;49638;47.526;10.028;2023-01-13T17:17:59;91902.84;;;3.66;83.93
63493;BME280;49638;47.526;10.028;2023-01-13T17:20:59;91885.91;;;3.49;84.17